Time;durP1;ratioP1;P1;durP2;ratioP2;P2;SDS_P1;SDS_P2;PMS_P1;PMS_P2;Temp;Humidity;BMP_temperature;BMP_pressure;BME280_temperature;BME280_humidity;BME280_pressure;Samples;Min_cycle;Max_cycle;Signal;HPM_P1;HPM_P2
2023/07/29 00:00:49;;;;;;;;;12.00;12.00;;;;;-143.47;100.00;63865.75;2097572;28;46779;-46
2023/07/29 00:01:51;;;;;;;;;9.00;9.00;;;;;-143.47;100.00;63865.75;2097407;28;46622;-46
2023/07/29 00:02:51;;;;;;;;;7.50;7.00;;;;;-143.47;100.00;63865.75;2090538;28;46866;-46
2023/07/29 00:03:51;;;;;;;;;11.00;9.00;;;;;-143.47;100.00;63865.75;2097343;28;46658;-45
2023/07/29 00:04:52;;;;;;;;;12.33;12.33;;;;;-143.47;100.00;63865.75;2093889;28;46546;-47
2023/07/29 00:05:52;;;;;;;;;10.00;9.67;;;;;-143.47;100.00;63865.75;2093150;28;46477;-46
2023/07/29 00:06:52;;;;;;;;;11.00;9.33;;;;;-143.47;100.00;63865.75;2097412;28;46801;-45
2023/07/29 00:07:52;;;;;;;;;11.00;11.00;;;;;-143.47;100.00;63865.75;2097320;28;46638;-46
2023/07/29 00:08:53;;;;;;;;;11.67;11.67;;;;;-143.47;100.00;63865.75;2097469;28;46642;-48
2023/07/29 00:09:53;;;;;;;;;11.00;10.33;;;;;-143.47;100.00;63865.75;2097534;28;46675;-46
2023/07/29 00:10:53;;;;;;;;;10.33;10.00;;;;;-143.47;100.00;63865.75;2097666;28;46272;-48
2023/07/29 00:11:54;;;;;;;;;7.67;7.00;;;;;-143.47;100.00;63865.75;2087659;28;46334;-49
2023/07/29 00:12:54;;;;;;;;;13.00;11.00;;;;;-143.47;100.00;63865.75;2084895;28;46548;-48
2023/07/29 00:13:55;;;;;;;;;9.33;9.33;;;;;-143.47;100.00;63865.75;2089221;28;46336;-47
2023/07/29 00:14:55;;;;;;;;;11.00;10.00;;;;;-143.47;100.00;63865.75;2095322;28;46256;-47
2023/07/29 00:15:55;;;;;;;;;10.67;10.33;;;;;-143.47;100.00;63865.75;2097473;28;46196;-48
2023/07/29 00:16:56;;;;;;;;;7.33;7.33;;;;;-143.47;100.00;63865.75;2097191;28;47074;-48
2023/07/29 00:17:56;;;;;;;;;7.67;7.33;;;;;-143.47;100.00;63865.75;2096074;28;46296;-49
2023/07/29 00:18:56;;;;;;;;;10.00;10.00;;;;;-143.47;100.00;63865.75;2097193;28;46471;-50
2023/07/29 00:19:57;;;;;;;;;10.00;10.00;;;;;-143.47;100.00;63865.75;2089758;28;46635;-51
2023/07/29 00:20:57;;;;;;;;;7.67;7.67;;;;;-143.47;100.00;63865.75;2091729;28;46406;-51
2023/07/29 00:21:57;;;;;;;;;7.00;7.00;;;;;-143.47;100.00;63865.75;2097638;28;46760;-50
2023/07/29 00:22:58;;;;;;;;;7.00;7.00;;;;;-143.47;100.00;63865.75;2097674;28;46235;-47
2023/07/29 00:24:00;;;;;;;;;7.50;6.75;;;;;-143.47;100.00;63865.75;2096117;28;46246;-46
2023/07/29 00:25:01;;;;;;;;;10.00;8.75;;;;;-143.47;100.00;63865.75;2090594;28;46680;-46
2023/07/29 00:26:01;;;;;;;;;9.00;9.00;;;;;-143.47;100.00;63865.75;2097177;28;46489;-47
2023/07/29 00:27:02;;;;;;;;;6.00;6.00;;;;;-143.47;100.00;63865.75;2097061;28;46327;-46
2023/07/29 00:28:02;;;;;;;;;8.00;8.00;;;;;-143.47;100.00;63865.75;2097601;28;45967;-46
2023/07/29 00:29:02;;;;;;;;;7.33;7.33;;;;;-143.47;100.00;63865.75;2096723;28;46560;-47
2023/07/29 00:30:03;;;;;;;;;5.67;5.00;;;;;-143.47;100.00;63865.75;2097008;28;45972;-46
2023/07/29 00:31:04;;;;;;;;;8.75;8.75;;;;;-143.47;100.00;63865.75;2097383;28;46521;-46
2023/07/29 00:32:04;;;;;;;;;5.00;5.00;;;;;-143.47;100.00;63865.75;2097152;28;46181;-46
2023/07/29 00:33:05;;;;;;;;;8.00;7.00;;;;;-143.47;100.00;63865.75;2097431;28;46264;-47
2023/07/29 00:34:05;;;;;;;;;9.00;6.67;;;;;-143.47;100.00;63865.75;2097228;28;46221;-48
2023/07/29 00:35:06;;;;;;;;;6.67;6.00;;;;;-143.47;100.00;63865.75;2094330;28;46960;-50
2023/07/29 00:36:06;;;;;;;;;4.25;4.25;;;;;-143.47;100.00;63865.75;2096513;28;47048;-50
2023/07/29 00:37:07;;;;;;;;;7.33;7.00;;;;;-143.47;100.00;63865.75;2097329;28;46617;-47
2023/07/29 00:38:07;;;;;;;;;7.00;6.33;;;;;-143.47;100.00;63865.75;2097273;28;46362;-47
2023/07/29 00:39:07;;;;;;;;;6.00;6.00;;;;;-143.47;100.00;63865.75;2096980;28;46207;-47
2023/07/29 00:40:15;;;;;;;;;6.00;6.00;;;;;-143.47;100.00;63865.75;2098171;28;46283;-46
2023/07/29 00:41:16;;;;;;;;;7.00;7.00;;;;;-143.47;100.00;63865.75;2105383;28;46377;-47
2023/07/29 00:42:16;;;;;;;;;5.33;5.33;;;;;-143.47;100.00;63865.75;2097536;28;46295;-49
2023/07/29 00:43:16;;;;;;;;;6.67;6.67;;;;;-143.47;100.00;63865.75;2104583;27;46341;-50
2023/07/29 00:44:17;;;;;;;;;5.00;5.00;;;;;-143.47;100.00;63865.75;2088655;28;46127;-48
2023/07/29 00:45:18;;;;;;;;;6.33;6.00;;;;;-143.47;100.00;63865.75;2095301;28;47601;-50
2023/07/29 00:46:20;;;;;;;;;6.00;6.00;;;;;-143.47;100.00;63865.75;2096490;28;46311;-52
2023/07/29 00:47:22;;;;;;;;;7.25;5.50;;;;;-143.47;100.00;63865.75;2097341;28;46576;-46
2023/07/29 00:48:23;;;;;;;;;6.25;6.25;;;;;-143.47;100.00;63865.75;2097822;28;46331;-47
2023/07/29 00:49:23;;;;;;;;;7.00;7.00;;;;;-143.47;100.00;63865.75;2097196;28;46596;-47
2023/07/29 00:50:24;;;;;;;;;7.00;7.00;;;;;-143.47;100.00;63865.75;2097466;28;45520;-46
2023/07/29 00:51:24;;;;;;;;;7.00;7.00;;;;;-143.47;100.00;63865.75;2096602;28;45318;-47
2023/07/29 00:52:25;;;;;;;;;5.67;5.33;;;;;-143.47;100.00;63865.75;2097067;28;46658;-50
2023/07/29 00:53:25;;;;;;;;;5.00;5.00;;;;;-143.47;100.00;63865.75;2096838;28;46691;-47
2023/07/29 00:54:25;;;;;;;;;3.67;3.67;;;;;-143.47;100.00;63865.75;2097230;28;46573;-51
2023/07/29 00:55:26;;;;;;;;;1.67;1.67;;;;;-143.47;100.00;63865.75;2097515;28;46413;-47
2023/07/29 00:56:27;;;;;;;;;3.25;3.25;;;;;-143.47;100.00;63865.75;2097730;28;46236;-48
2023/07/29 00:57:29;;;;;;;;;2.00;2.00;;;;;-143.47;100.00;63865.75;2096752;28;46336;-47
2023/07/29 00:58:29;;;;;;;;;2.25;2.25;;;;;-143.47;100.00;63865.75;2095200;28;46778;-46
2023/07/29 00:59:31;;;;;;;;;3.00;3.00;;;;;-143.47;100.00;63865.75;2096589;28;46680;-46
2023/07/29 01:00:32;;;;;;;;;2.25;2.25;;;;;-143.47;100.00;63865.75;2095302;28;46382;-47
2023/07/29 01:01:33;;;;;;;;;2.33;2.33;;;;;-143.47;100.00;63865.75;2089838;28;46721;-48
2023/07/29 01:02:34;;;;;;;;;2.67;2.67;;;;;-143.47;100.00;63865.75;2094736;28;46527;-46
2023/07/29 01:03:35;;;;;;;;;2.00;2.00;;;;;-143.47;100.00;63865.75;2093907;28;46238;-46
2023/07/29 01:04:35;;;;;;;;;1.75;1.75;;;;;-143.47;100.00;63865.75;2089732;28;46395;-46
2023/07/29 01:05:54;;;;;;;;;1.33;1.33;;;;;-143.47;100.00;63865.75;2090641;28;46916;-46
2023/07/29 01:07:21;;;;;;;;;1.25;1.25;;;;;-143.47;100.00;63865.75;2097045;28;46260;-48
2023/07/29 01:09:00;;;;;;;;;1.25;1.25;;;;;-143.47;100.00;63865.75;2091232;28;46408;-47
2023/07/29 01:10:06;;;;;;;;;3.00;3.00;;;;;-143.47;100.00;63865.75;2095263;28;45861;-48
2023/07/29 01:11:29;;;;;;;;;1.50;1.50;;;;;-143.47;100.00;63865.75;2100563;27;46739;-47
2023/07/29 01:12:54;;;;;;;;;1.00;1.00;;;;;-143.47;100.00;63865.75;2090093;28;46469;-47
2023/07/29 01:14:03;;;;;;;;;1.25;1.25;;;;;-143.47;100.00;63865.75;2088840;28;46634;-47
2023/07/29 01:15:22;;;;;;;;;1.75;1.25;;;;;-143.47;100.00;63865.75;2088883;28;46196;-46
2023/07/29 01:16:45;;;;;;;;;2.00;2.00;;;;;-143.47;100.00;63865.75;2090406;28;46334;-47
2023/07/29 01:17:54;;;;;;;;;1.00;1.00;;;;;-143.47;100.00;63865.75;2107540;27;46916;-48
2023/07/29 01:18:55;;;;;;;;;1.00;1.00;;;;;-143.47;100.00;63865.75;2102314;28;46405;-49
2023/07/29 01:20:07;;;;;;;;;1.75;1.75;;;;;-143.47;100.00;63865.75;2090641;28;46505;-46
2023/07/29 01:21:10;;;;;;;;;1.00;0.25;;;;;-143.47;100.00;63865.75;2090835;28;46610;-46
2023/07/29 01:22:12;;;;;;;;;1.00;1.00;;;;;-143.47;100.00;63865.75;2096680;28;46894;-47
2023/07/29 01:23:12;;;;;;;;;2.00;2.00;;;;;-143.47;100.00;63865.75;2096726;28;47021;-47
2023/07/29 01:24:13;;;;;;;;;1.67;0.67;;;;;-143.47;100.00;63865.75;2100768;28;46763;-45
2023/07/29 01:25:13;;;;;;;;;1.00;1.00;;;;;-143.47;100.00;63865.75;2095895;27;46538;-45
2023/07/29 01:26:14;;;;;;;;;1.00;1.00;;;;;-143.47;100.00;63865.75;2096951;28;46875;-46
2023/07/29 01:27:14;;;;;;;;;0.67;0.67;;;;;-143.47;100.00;63865.75;2097075;28;46616;-47
2023/07/29 01:28:15;;;;;;;;;1.00;1.00;;;;;-143.47;100.00;63865.75;2101027;27;46357;-47
2023/07/29 01:29:15;;;;;;;;;1.00;1.00;;;;;-143.47;100.00;63865.75;2097337;28;46280;-47
2023/07/29 01:30:15;;;;;;;;;0.00;0.00;;;;;-143.47;100.00;63865.75;2096295;28;46929;-45
2023/07/29 01:31:41;;;;;;;;;1.67;1.67;;;;;-143.47;100.00;63865.75;2094357;28;47101;-45
2023/07/29 01:32:57;;;;;;;;;1.25;1.25;;;;;-143.47;100.00;63865.75;2090211;28;46809;-50
2023/07/29 01:34:10;;;;;;;;;1.25;1.25;;;;;-143.47;100.00;63865.75;2096580;28;46209;-46
2023/07/29 01:35:26;;;;;;;;;1.50;1.50;;;;;-143.47;100.00;63865.75;2097286;28;47504;-47
2023/07/29 01:36:30;;;;;;;;;1.50;0.50;;;;;-143.47;100.00;63865.75;2092101;28;46360;-47
2023/07/29 01:37:35;;;;;;;;;0.75;0.75;;;;;-143.47;100.00;63865.75;2104529;28;46777;-48
2023/07/29 01:38:38;;;;;;;;;1.00;0.50;;;;;-143.47;100.00;63865.75;2099732;28;46187;-47
2023/07/29 01:39:39;;;;;;;;;3.00;1.25;;;;;-143.47;100.00;63865.75;2100155;28;46489;-47
2023/07/29 01:40:40;;;;;;;;;1.00;1.00;;;;;-143.47;100.00;63865.75;2098816;28;46708;-47
2023/07/29 01:41:43;;;;;;;;;0.75;0.75;;;;;-143.47;100.00;63865.75;2096946;28;46560;-45
2023/07/29 01:42:45;;;;;;;;;0.75;0.75;;;;;-143.47;100.00;63865.75;2105097;27;46311;-44
2023/07/29 01:43:46;;;;;;;;;0.25;0.25;;;;;-143.47;100.00;63865.75;2101682;28;46070;-47
2023/07/29 01:44:47;;;;;;;;;0.00;0.00;;;;;-143.47;100.00;63865.75;2101077;28;46060;-46
2023/07/29 01:45:47;;;;;;;;;0.33;0.33;;;;;-143.47;100.00;63865.75;2105464;27;46452;-46
2023/07/29 01:46:49;;;;;;;;;1.00;1.00;;;;;-143.47;100.00;63865.75;2100330;27;46330;-46
2023/07/29 01:47:50;;;;;;;;;0.50;0.50;;;;;-143.47;100.00;63865.75;2100789;27;46376;-47
2023/07/29 01:48:50;;;;;;;;;1.00;1.00;;;;;-143.47;100.00;63865.75;2105584;27;46293;-46
2023/07/29 01:49:50;;;;;;;;;0.00;0.00;;;;;-143.47;100.00;63865.75;2096605;27;46249;-48
2023/07/29 01:50:51;;;;;;;;;0.67;0.67;;;;;-143.47;100.00;63865.75;2095756;28;46746;-46
2023/07/29 01:51:51;;;;;;;;;0.33;0.33;;;;;-143.47;100.00;63865.75;2096868;28;46580;-46
2023/07/29 01:52:51;;;;;;;;;0.00;0.00;;;;;-143.47;100.00;63865.75;2095878;28;46580;-46
2023/07/29 01:53:52;;;;;;;;;2.00;1.00;;;;;-143.47;100.00;63865.75;2096280;28;45790;-46
2023/07/29 01:54:52;;;;;;;;;0.00;0.00;;;;;-143.47;100.00;63865.75;2097014;28;46260;-46
2023/07/29 01:55:52;;;;;;;;;0.67;0.67;;;;;-143.47;100.00;63865.75;2096808;28;46777;-46
2023/07/29 01:56:53;;;;;;;;;0.00;0.00;;;;;-143.47;100.00;63865.75;2097203;28;46597;-47
2023/07/29 01:57:53;;;;;;;;;1.33;1.33;;;;;-143.47;100.00;63865.75;2091672;28;46234;-49
2023/07/29 01:58:53;;;;;;;;;0.00;0.00;;;;;-143.47;100.00;63865.75;2088953;28;46653;-46
2023/07/29 01:59:54;;;;;;;;;0.67;0.67;;;;;-143.47;100.00;63865.75;2095822;28;47845;-49
2023/07/29 02:00:54;;;;;;;;;2.00;1.33;;;;;-143.47;100.00;63865.75;2096615;28;46360;-50
2023/07/29 02:01:54;;;;;;;;;0.00;0.00;;;;;-143.47;100.00;63865.75;2096519;28;46664;-47
2023/07/29 02:02:55;;;;;;;;;0.00;0.00;;;;;-143.47;100.00;63865.75;2097399;28;46181;-47
2023/07/29 02:03:55;;;;;;;;;0.00;0.00;;;;;-143.47;100.00;63865.75;2097003;28;46389;-47
2023/07/29 02:04:55;;;;;;;;;1.00;1.00;;;;;-143.47;100.00;63865.75;2093702;28;46217;-45
2023/07/29 02:05:56;;;;;;;;;0.00;0.00;;;;;-143.47;100.00;63865.75;2095233;28;46452;-46
2023/07/29 02:06:56;;;;;;;;;1.00;1.00;;;;;-143.47;100.00;63865.75;2096820;28;46853;-46
2023/07/29 02:07:57;;;;;;;;;0.00;0.00;;;;;-143.47;100.00;63865.75;2096791;28;46490;-47
2023/07/29 02:08:57;;;;;;;;;1.67;0.67;;;;;-143.47;100.00;63865.75;2096489;28;46497;-47
2023/07/29 02:09:57;;;;;;;;;1.00;1.00;;;;;-143.47;100.00;63865.75;2096788;28;46330;-48
2023/07/29 02:10:57;;;;;;;;;0.00;0.00;;;;;-143.47;100.00;63865.75;2096849;28;46504;-47
2023/07/29 02:11:58;;;;;;;;;0.33;0.00;;;;;-143.47;100.00;63865.75;2096792;28;46325;-47
2023/07/29 02:12:58;;;;;;;;;0.00;0.00;;;;;-143.47;100.00;63865.75;2097025;28;46654;-46
2023/07/29 02:13:59;;;;;;;;;0.00;0.00;;;;;-143.47;100.00;63865.75;2096789;28;46405;-46
2023/07/29 02:14:59;;;;;;;;;0.67;0.67;;;;;-143.47;100.00;63865.75;2096557;28;46492;-46
2023/07/29 02:16:00;;;;;;;;;0.75;0.75;;;;;-143.47;100.00;63865.75;2096141;28;46810;-47
2023/07/29 02:17:01;;;;;;;;;1.00;1.00;;;;;-143.47;100.00;63865.75;2096937;28;46601;-46
2023/07/29 02:18:01;;;;;;;;;0.33;0.33;;;;;-143.47;100.00;63865.75;2088894;28;46406;-47
2023/07/29 02:19:03;;;;;;;;;0.00;0.00;;;;;-143.47;100.00;63865.75;2096513;28;46197;-46
2023/07/29 02:20:04;;;;;;;;;1.75;0.00;;;;;-143.47;100.00;63865.75;2092916;28;46984;-47
2023/07/29 02:21:04;;;;;;;;;0.00;0.00;;;;;-143.47;100.00;63865.75;2104580;28;45052;-51
2023/07/29 02:22:04;;;;;;;;;0.00;0.00;;;;;-143.47;100.00;63865.75;2111880;27;45723;-47
2023/07/29 02:23:05;;;;;;;;;1.00;1.00;;;;;-143.47;100.00;63865.75;2094519;28;46278;-49
2023/07/29 02:24:05;;;;;;;;;0.00;0.00;;;;;-143.47;100.00;63865.75;2094571;28;46443;-47
2023/07/29 02:25:06;;;;;;;;;0.00;0.00;;;;;-143.47;100.00;63865.75;2096558;28;46355;-49
2023/07/29 02:26:06;;;;;;;;;0.00;0.00;;;;;-143.47;100.00;63865.75;2096076;28;46631;-52
2023/07/29 02:27:07;;;;;;;;;0.00;0.00;;;;;-143.47;100.00;63865.75;2092940;28;46453;-48
2023/07/29 02:28:07;;;;;;;;;0.00;0.00;;;;;-143.47;100.00;63865.75;2107934;27;46082;-49
2023/07/29 02:29:07;;;;;;;;;0.00;0.00;;;;;-143.47;100.00;63865.75;2113016;27;45753;-49
2023/07/29 02:30:09;;;;;;;;;0.00;0.00;;;;;-143.47;100.00;63865.75;2091303;28;46461;-49
2023/07/29 02:31:17;;;;;;;;;0.00;0.00;;;;;-143.47;100.00;63865.75;2095984;28;46420;-47
2023/07/29 02:32:18;;;;;;;;;0.75;0.75;;;;;-143.47;100.00;63865.75;2093510;28;46549;-46
2023/07/29 02:33:19;;;;;;;;;1.00;1.00;;;;;-143.47;100.00;63865.75;2096412;28;46582;-50
2023/07/29 02:34:19;;;;;;;;;1.00;1.00;;;;;-143.47;100.00;63865.75;2096087;28;46447;-49
2023/07/29 02:35:19;;;;;;;;;0.00;0.00;;;;;-143.47;100.00;63865.75;2093727;28;46333;-49
2023/07/29 02:36:20;;;;;;;;;0.00;0.00;;;;;-143.47;100.00;63865.75;2096315;28;46234;-50
2023/07/29 02:37:20;;;;;;;;;0.67;0.67;;;;;-143.47;100.00;63865.75;2098921;28;46201;-47
2023/07/29 02:38:20;;;;;;;;;0.00;0.00;;;;;-143.47;100.00;63865.75;2098397;28;45235;-47
2023/07/29 02:39:21;;;;;;;;;0.00;0.00;;;;;-143.47;100.00;63865.75;2097882;27;46954;-50
2023/07/29 02:40:22;;;;;;;;;0.00;0.00;;;;;-143.47;100.00;63865.75;2098508;28;46609;-47
2023/07/29 02:41:23;;;;;;;;;0.25;0.25;;;;;-143.47;100.00;63865.75;2096889;28;46551;-50
2023/07/29 02:42:23;;;;;;;;;1.00;1.00;;;;;-143.47;100.00;63865.75;2098343;27;46275;-48
2023/07/29 02:43:23;;;;;;;;;0.00;0.00;;;;;-143.47;100.00;63865.75;2099214;28;47305;-48
2023/07/29 02:44:24;;;;;;;;;0.00;0.00;;;;;-143.47;100.00;63865.75;2086949;28;46381;-48
2023/07/29 02:45:24;;;;;;;;;1.33;0.00;;;;;-143.47;100.00;63865.75;2089360;28;46187;-46
2023/07/29 02:46:25;;;;;;;;;0.67;0.67;;;;;-143.47;100.00;63865.75;2088389;28;46911;-47
2023/07/29 02:47:25;;;;;;;;;1.00;1.00;;;;;-143.47;100.00;63865.75;2086833;28;46333;-46
2023/07/29 02:48:25;;;;;;;;;0.00;0.00;;;;;-143.47;100.00;63865.75;2099006;28;46205;-48
2023/07/29 02:49:26;;;;;;;;;0.67;0.67;;;;;-143.47;100.00;63865.75;2112805;27;46264;-48
2023/07/29 02:50:26;;;;;;;;;0.00;0.00;;;;;-143.47;100.00;63865.75;2112947;27;46586;-50
2023/07/29 02:51:26;;;;;;;;;0.67;0.67;;;;;-143.47;100.00;63865.75;2096339;27;46333;-49
2023/07/29 02:52:27;;;;;;;;;0.00;0.00;;;;;-143.47;100.00;63865.75;2096435;28;46649;-47
2023/07/29 02:53:27;;;;;;;;;1.00;1.00;;;;;-143.47;100.00;63865.75;2099627;28;46681;-48
2023/07/29 02:54:27;;;;;;;;;0.00;0.00;;;;;-143.47;100.00;63865.75;2098390;28;46796;-46
2023/07/29 02:55:28;;;;;;;;;0.67;0.67;;;;;-143.47;100.00;63865.75;2096279;28;46299;-46
2023/07/29 02:56:28;;;;;;;;;2.33;1.00;;;;;-143.47;100.00;63865.75;2098027;28;46188;-48
2023/07/29 02:57:28;;;;;;;;;0.00;0.00;;;;;-143.47;100.00;63865.75;2088370;28;46701;-47
2023/07/29 02:58:29;;;;;;;;;0.00;0.00;;;;;-143.47;100.00;63865.75;2099173;27;46060;-47
2023/07/29 02:59:29;;;;;;;;;0.00;0.00;;;;;-143.47;100.00;63865.75;2096485;28;46097;-46
2023/07/29 03:00:31;;;;;;;;;0.67;0.67;;;;;-143.47;100.00;63865.75;2096442;28;46461;-47
2023/07/29 03:01:31;;;;;;;;;0.00;0.00;;;;;-143.47;100.00;63865.75;2099503;28;46517;-47
2023/07/29 03:02:32;;;;;;;;;1.00;1.00;;;;;-143.47;100.00;63865.75;2098082;28;46507;-46
2023/07/29 03:03:33;;;;;;;;;1.00;1.00;;;;;-143.47;100.00;63865.75;2097919;27;46779;-46
2023/07/29 03:04:33;;;;;;;;;0.00;0.00;;;;;-143.47;100.00;63865.75;2096363;28;46662;-45
2023/07/29 03:05:34;;;;;;;;;1.00;0.00;;;;;-143.47;100.00;63865.75;2089856;28;46650;-46
2023/07/29 03:06:34;;;;;;;;;0.00;0.00;;;;;-143.47;100.00;63865.75;2098030;28;46692;-47
2023/07/29 03:07:34;;;;;;;;;1.00;0.00;;;;;-143.47;100.00;63865.75;2098098;28;46490;-44
2023/07/29 03:08:35;;;;;;;;;0.00;0.00;;;;;-143.47;100.00;63865.75;2096744;28;46987;-48
2023/07/29 03:09:36;;;;;;;;;0.00;0.00;;;;;-143.47;100.00;63865.75;2097538;28;45079;-46
2023/07/29 03:10:36;;;;;;;;;0.00;0.00;;;;;-143.47;100.00;63865.75;2096112;28;45038;-47
2023/07/29 03:11:37;;;;;;;;;0.00;0.00;;;;;-143.47;100.00;63865.75;2097284;27;46946;-46
2023/07/29 03:12:37;;;;;;;;;0.00;0.00;;;;;-143.47;100.00;63865.75;2094625;28;46199;-47
2023/07/29 03:13:37;;;;;;;;;1.00;1.00;;;;;-143.47;100.00;63865.75;2094763;28;46562;-48
2023/07/29 03:14:38;;;;;;;;;0.00;0.00;;;;;-143.47;100.00;63865.75;2094673;28;46956;-45
2023/07/29 03:15:38;;;;;;;;;0.33;0.33;;;;;-143.47;100.00;63865.75;2092823;28;46373;-46
2023/07/29 03:16:38;;;;;;;;;0.67;0.67;;;;;-143.47;100.00;63865.75;2104516;27;46846;-47
2023/07/29 03:17:39;;;;;;;;;0.00;0.00;;;;;-143.47;100.00;63865.75;2096955;27;46640;-45
2023/07/29 03:18:41;;;;;;;;;0.00;0.00;;;;;-143.47;100.00;63865.75;2093651;28;46691;-47
2023/07/29 03:19:41;;;;;;;;;0.50;0.50;;;;;-143.47;100.00;63865.75;2094323;28;46003;-48
2023/07/29 03:20:41;;;;;;;;;0.00;0.00;;;;;-143.47;100.00;63865.75;2096837;28;46335;-46
2023/07/29 03:21:42;;;;;;;;;0.00;0.00;;;;;-143.47;100.00;63865.75;2095707;28;46799;-48
2023/07/29 03:22:42;;;;;;;;;0.67;0.67;;;;;-143.47;100.00;63865.75;2097356;28;46651;-47
2023/07/29 03:23:42;;;;;;;;;0.00;0.00;;;;;-143.47;100.00;63865.75;2095183;28;46600;-48
2023/07/29 03:24:43;;;;;;;;;0.67;0.67;;;;;-143.47;100.00;63865.75;2096363;28;46232;-46
2023/07/29 03:25:44;;;;;;;;;1.00;1.00;;;;;-143.47;100.00;63865.75;2099054;28;46637;-45
2023/07/29 03:26:45;;;;;;;;;0.50;0.50;;;;;-143.47;100.00;63865.75;2101846;27;46250;-45
2023/07/29 03:27:45;;;;;;;;;0.33;0.33;;;;;-143.47;100.00;63865.75;2103056;28;46837;-46
2023/07/29 03:28:45;;;;;;;;;1.00;0.00;;;;;-143.47;100.00;63865.75;2098845;27;46823;-47
2023/07/29 03:29:46;;;;;;;;;0.00;0.00;;;;;-143.47;100.00;63865.75;2093744;28;46288;-46
2023/07/29 03:30:46;;;;;;;;;0.00;0.00;;;;;-143.47;100.00;63865.75;2090556;28;46273;-47
2023/07/29 03:31:46;;;;;;;;;1.33;0.00;;;;;-143.47;100.00;63865.75;2101252;28;46263;-47
2023/07/29 03:32:47;;;;;;;;;1.00;0.00;;;;;-143.47;100.00;63865.75;2104219;28;46353;-47
2023/07/29 03:33:47;;;;;;;;;0.00;0.00;;;;;-143.47;100.00;63865.75;2089752;28;47480;-46
2023/07/29 03:34:48;;;;;;;;;1.00;1.00;;;;;-143.47;100.00;63865.75;2098342;28;46717;-46
2023/07/29 03:35:49;;;;;;;;;0.00;0.00;;;;;-143.47;100.00;63865.75;2097366;28;46235;-52
2023/07/29 03:36:50;;;;;;;;;0.00;0.00;;;;;-143.47;100.00;63865.75;2095776;28;46479;-50
2023/07/29 03:37:50;;;;;;;;;0.75;0.75;;;;;-143.47;100.00;63865.75;2104726;27;46536;-47
2023/07/29 03:38:51;;;;;;;;;0.67;0.67;;;;;-143.47;100.00;63865.75;2100170;27;46232;-46
2023/07/29 03:39:52;;;;;;;;;0.33;0.33;;;;;-143.47;100.00;63865.75;2100733;27;46083;-46
2023/07/29 03:40:53;;;;;;;;;0.00;0.00;;;;;-143.47;100.00;63865.75;2105237;27;46951;-48
2023/07/29 03:41:53;;;;;;;;;0.75;0.75;;;;;-143.47;100.00;63865.75;2100550;27;46935;-46
2023/07/29 03:42:53;;;;;;;;;0.00;0.00;;;;;-143.47;100.00;63865.75;2101467;27;46323;-48
2023/07/29 03:43:54;;;;;;;;;0.00;0.00;;;;;-143.47;100.00;63865.75;2095763;28;46415;-48
2023/07/29 03:44:54;;;;;;;;;1.00;1.00;;;;;-143.47;100.00;63865.75;2096639;28;46575;-48
2023/07/29 03:45:55;;;;;;;;;0.67;0.33;;;;;-143.47;100.00;63865.75;2104864;27;46663;-45
2023/07/29 03:46:55;;;;;;;;;0.00;0.00;;;;;-143.47;100.00;63865.75;2100611;27;46745;-46
2023/07/29 03:47:56;;;;;;;;;0.67;0.67;;;;;-143.47;100.00;63865.75;2100672;27;46431;-46
2023/07/29 03:48:56;;;;;;;;;1.00;1.00;;;;;-143.47;100.00;63865.75;2105078;27;46629;-46
2023/07/29 03:49:57;;;;;;;;;1.67;1.00;;;;;-143.47;100.00;63865.75;2099368;27;46618;-46
2023/07/29 03:50:57;;;;;;;;;0.00;0.00;;;;;-143.47;100.00;63865.75;2093842;28;46862;-46
2023/07/29 03:51:57;;;;;;;;;1.00;1.00;;;;;-143.47;100.00;63865.75;2098769;28;46630;-45
2023/07/29 03:52:58;;;;;;;;;1.33;1.33;;;;;-143.47;100.00;63865.75;2094947;28;46154;-46
2023/07/29 03:53:58;;;;;;;;;0.33;0.33;;;;;-143.47;100.00;63865.75;2098424;27;46286;-46
2023/07/29 03:54:58;;;;;;;;;1.00;1.00;;;;;-143.47;100.00;63865.75;2098964;28;46358;-45
2023/07/29 03:55:59;;;;;;;;;1.00;1.00;;;;;-143.47;100.00;63865.75;2096945;28;46320;-47
2023/07/29 03:56:59;;;;;;;;;1.00;1.00;;;;;-143.47;100.00;63865.75;2100130;28;46143;-49
2023/07/29 03:58:00;;;;;;;;;1.00;1.00;;;;;-143.47;100.00;63865.75;2097330;28;46419;-47
2023/07/29 03:59:05;;;;;;;;;0.67;0.67;;;;;-143.47;100.00;63865.75;2096651;28;46061;-46
2023/07/29 04:00:06;;;;;;;;;2.00;2.00;;;;;-143.47;100.00;63865.75;2099537;28;46956;-47
2023/07/29 04:01:06;;;;;;;;;1.33;1.33;;;;;-143.47;100.00;63865.75;2084805;28;46677;-47
2023/07/29 04:02:06;;;;;;;;;0.00;0.00;;;;;-143.47;100.00;63865.75;2085525;28;46780;-46
2023/07/29 04:03:07;;;;;;;;;1.33;1.33;;;;;-143.47;100.00;63865.75;2099100;28;46616;-48
2023/07/29 04:04:07;;;;;;;;;1.00;1.00;;;;;-143.47;100.00;63865.75;2094650;28;46491;-47
2023/07/29 04:05:08;;;;;;;;;2.00;1.33;;;;;-143.47;100.00;63865.75;2096267;28;46452;-47
2023/07/29 04:06:08;;;;;;;;;0.00;0.00;;;;;-143.47;100.00;63865.75;2099276;28;46251;-49
2023/07/29 04:07:09;;;;;;;;;0.00;0.00;;;;;-143.47;100.00;63865.75;2089358;28;46326;-47
2023/07/29 04:08:09;;;;;;;;;1.00;1.00;;;;;-143.47;100.00;63865.75;2094448;28;45225;-46
2023/07/29 04:09:10;;;;;;;;;1.00;1.00;;;;;-143.47;100.00;63865.75;2088930;28;46255;-46
2023/07/29 04:10:11;;;;;;;;;1.00;1.00;;;;;-143.47;100.00;63865.75;2103762;28;46451;-48
2023/07/29 04:11:11;;;;;;;;;0.33;0.33;;;;;-143.47;100.00;63865.75;2094018;27;47057;-47
2023/07/29 04:12:11;;;;;;;;;0.00;0.00;;;;;-143.47;100.00;63865.75;2097403;28;46364;-46
2023/07/29 04:13:12;;;;;;;;;1.00;1.00;;;;;-143.47;100.00;63865.75;2097115;28;46438;-47
2023/07/29 04:14:12;;;;;;;;;0.00;0.00;;;;;-143.47;100.00;63865.75;2097558;28;46210;-46
2023/07/29 04:15:12;;;;;;;;;0.67;0.67;;;;;-143.47;100.00;63865.75;2097072;28;47141;-47
2023/07/29 04:16:13;;;;;;;;;2.00;2.00;;;;;-143.47;100.00;63865.75;2100361;28;46365;-45
2023/07/29 04:17:13;;;;;;;;;1.67;1.00;;;;;-143.47;100.00;63865.75;2106418;27;45506;-46
2023/07/29 04:18:13;;;;;;;;;2.33;2.00;;;;;-143.47;100.00;63865.75;2099060;27;46174;-46
2023/07/29 04:19:14;;;;;;;;;1.00;1.00;;;;;-143.47;100.00;63865.75;2097962;28;46207;-49
2023/07/29 04:20:14;;;;;;;;;1.00;0.00;;;;;-143.47;100.00;63865.75;2097858;28;46256;-48
2023/07/29 04:21:14;;;;;;;;;3.00;2.00;;;;;-143.47;100.00;63865.75;2104540;27;46168;-47
2023/07/29 04:22:16;;;;;;;;;2.00;2.00;;;;;-143.47;100.00;63865.75;2106169;27;46602;-49
2023/07/29 04:23:16;;;;;;;;;0.75;0.75;;;;;-143.47;100.00;63865.75;2104256;27;46578;-47
2023/07/29 04:24:16;;;;;;;;;1.00;1.00;;;;;-143.47;100.00;63865.75;2104791;27;46189;-51
2023/07/29 04:25:17;;;;;;;;;2.00;2.00;;;;;-143.47;100.00;63865.75;2106113;27;47015;-47
2023/07/29 04:26:17;;;;;;;;;0.67;0.67;;;;;-143.47;100.00;63865.75;2104728;27;46522;-47
2023/07/29 04:27:17;;;;;;;;;1.00;1.00;;;;;-143.47;100.00;63865.75;2104183;27;46769;-47
2023/07/29 04:28:17;;;;;;;;;2.33;2.00;;;;;-143.47;100.00;63865.75;2097404;28;46749;-47
2023/07/29 04:29:18;;;;;;;;;1.67;1.67;;;;;-143.47;100.00;63865.75;2100499;28;46594;-46
2023/07/29 04:30:18;;;;;;;;;1.00;1.00;;;;;-143.47;100.00;63865.75;2105977;27;46425;-46
2023/07/29 04:31:18;;;;;;;;;2.67;2.67;;;;;-143.47;100.00;63865.75;2104578;27;46325;-50
2023/07/29 04:32:19;;;;;;;;;1.00;1.00;;;;;-143.47;100.00;63865.75;2103652;27;45252;-46
2023/07/29 04:33:19;;;;;;;;;1.00;1.00;;;;;-143.47;100.00;63865.75;2097520;28;46216;-48
2023/07/29 04:34:20;;;;;;;;;2.00;2.00;;;;;-143.47;100.00;63865.75;2096390;28;45467;-49
2023/07/29 04:35:20;;;;;;;;;0.33;0.33;;;;;-143.47;100.00;63865.75;2096588;28;46476;-46
2023/07/29 04:36:20;;;;;;;;;0.67;0.67;;;;;-143.47;100.00;63865.75;2105258;28;46196;-47
2023/07/29 04:37:21;;;;;;;;;1.33;1.33;;;;;-143.47;100.00;63865.75;2100793;27;46270;-47
2023/07/29 04:38:21;;;;;;;;;1.67;1.00;;;;;-143.47;100.00;63865.75;2096470;28;46570;-48
2023/07/29 04:39:21;;;;;;;;;1.00;1.00;;;;;-143.47;100.00;63865.75;2096276;28;46764;-49
2023/07/29 04:40:22;;;;;;;;;1.67;1.67;;;;;-143.47;100.00;63865.75;2097864;28;48354;-51